createdAt,value
2022-08-25T00:00:22.495Z,10.40
2022-08-25T00:03:05.170Z,11.20
2022-08-25T00:05:33.387Z,9.30
2022-08-25T00:08:03.926Z,9.80
2022-08-25T00:10:34.973Z,10.30
2022-08-25T00:13:04.352Z,10.30
2022-08-25T00:15:32.442Z,9.20
2022-08-25T00:18:01.251Z,10.00
2022-08-25T00:20:32.571Z,9.20
2022-08-25T00:23:01.669Z,9.40
2022-08-25T00:25:29.531Z,9.60
2022-08-25T00:27:59.126Z,9.50
2022-08-25T00:30:27.846Z,10.70
2022-08-25T00:32:57.516Z,9.80
2022-08-25T00:35:27.251Z,10.40
2022-08-25T00:37:55.388Z,10.40
2022-08-25T00:40:26.722Z,10.00
2022-08-25T00:42:56.246Z,10.40
2022-08-25T00:45:24.926Z,10.60
2022-08-25T00:47:53.307Z,9.60
2022-08-25T00:50:22.749Z,9.30
2022-08-25T00:52:58.382Z,9.30
2022-08-25T00:55:37.042Z,10.10
2022-08-25T00:58:16.543Z,10.20
2022-08-25T01:00:49.748Z,9.90
2022-08-25T01:03:19.472Z,11.00
2022-08-25T01:05:48.128Z,9.90
2022-08-25T01:08:16.787Z,10.60
2022-08-25T01:10:45.384Z,10.80
2022-08-25T01:13:28.534Z,11.30
2022-08-25T01:15:57.374Z,11.30
2022-08-25T01:18:27.361Z,10.60
2022-08-25T01:20:57.841Z,11.90
2022-08-25T01:23:26.914Z,10.80
2022-08-25T01:26:14.118Z,10.60
2022-08-25T01:29:03.877Z,9.90
2022-08-25T01:31:33.593Z,10.20
2022-08-25T01:34:01.588Z,10.70
2022-08-25T01:36:30.887Z,10.00
2022-08-25T01:38:59.150Z,11.80
2022-08-25T01:41:29.975Z,11.90
2022-08-25T01:43:57.847Z,10.20
2022-08-25T01:46:26.338Z,10.60
2022-08-25T01:48:54.228Z,10.70
2022-08-25T01:51:25.547Z,10.90
2022-08-25T01:53:53.548Z,11.70
2022-08-25T01:56:21.577Z,11.90
2022-08-25T01:58:50.056Z,12.00
2022-08-25T02:01:22.149Z,11.90
2022-08-25T02:03:53.754Z,11.20
2022-08-25T02:06:29.880Z,11.10
2022-08-25T02:09:08.522Z,11.20
2022-08-25T02:11:39.622Z,11.70
2022-08-25T02:14:09.403Z,11.00
2022-08-25T02:16:39.899Z,11.30
2022-08-25T02:19:12.082Z,11.90
2022-08-25T02:21:40.077Z,11.30
2022-08-25T02:24:08.723Z,10.60
2022-08-25T02:26:36.647Z,11.60
2022-08-25T02:29:07.543Z,11.90
2022-08-25T02:31:36.551Z,11.50
2022-08-25T02:34:05.293Z,11.30
2022-08-25T02:36:33.636Z,10.20
2022-08-25T02:39:01.880Z,10.80
2022-08-25T02:41:33.650Z,10.00
2022-08-25T02:44:03.370Z,12.00
2022-08-25T02:46:32.333Z,10.80
2022-08-25T02:49:00.215Z,11.80
2022-08-25T02:51:32.189Z,11.30
2022-08-25T02:54:02.570Z,12.10
2022-08-25T02:56:32.034Z,11.50
2022-08-25T02:59:00.955Z,12.30
2022-08-25T03:01:30.747Z,12.00
2022-08-25T03:03:58.763Z,11.30
2022-08-25T03:06:28.076Z,11.20
2022-08-25T03:08:56.108Z,11.90
2022-08-25T03:11:26.771Z,12.60
2022-08-25T03:13:56.517Z,12.60
2022-08-25T03:16:27.812Z,11.90
2022-08-25T03:18:56.954Z,11.60
2022-08-25T03:21:26.882Z,11.50
2022-08-25T03:23:55.432Z,12.90
2022-08-25T03:26:42.005Z,14.60
2022-08-25T03:29:10.674Z,13.60
2022-08-25T03:31:39.143Z,12.40
2022-08-25T03:34:07.110Z,11.30
2022-08-25T03:36:34.944Z,12.70
2022-08-25T03:39:03.394Z,13.70
2022-08-25T03:41:32.879Z,12.00
2022-08-25T03:44:03.631Z,12.80
2022-08-25T03:46:41.781Z,13.40
2022-08-25T03:49:16.397Z,12.90
2022-08-25T03:51:48.112Z,14.10
2022-08-25T03:54:22.873Z,14.80
2022-08-25T03:56:50.789Z,13.50
2022-08-25T03:59:19.911Z,14.60
2022-08-25T04:01:52.620Z,14.50
2022-08-25T04:04:22.010Z,14.80
2022-08-25T04:06:49.935Z,15.70
2022-08-25T04:09:17.773Z,15.20
2022-08-25T04:11:45.654Z,14.30
2022-08-25T04:14:15.804Z,14.40
2022-08-25T04:16:45.625Z,14.50
2022-08-25T04:19:13.795Z,14.20
2022-08-25T04:21:42.418Z,15.50
2022-08-25T04:24:12.277Z,14.50
2022-08-25T04:26:44.524Z,14.50
2022-08-25T04:31:46.992Z,16.10
2022-08-25T04:34:30.230Z,16.60
2022-08-25T04:37:02.949Z,17.70
2022-08-25T04:39:31.440Z,16.70
2022-08-25T04:42:00.819Z,17.10
2022-08-25T04:44:30.903Z,18.40
2022-08-25T04:46:59.547Z,16.40
2022-08-25T04:49:28.721Z,18.50
2022-08-25T04:51:57.621Z,18.00
2022-08-25T04:54:25.604Z,18.20
2022-08-25T04:56:54.624Z,16.30
2022-08-25T04:59:30.028Z,16.90
2022-08-25T05:04:31.931Z,17.40
2022-08-25T05:07:00.933Z,17.10
2022-08-25T05:09:32.126Z,18.20
2022-08-25T05:12:04.771Z,17.90
2022-08-25T05:14:32.920Z,18.40
2022-08-25T05:17:01.553Z,18.40
2022-08-25T05:19:29.993Z,17.90
2022-08-25T05:21:58.297Z,17.50
2022-08-25T05:24:40.236Z,17.30
2022-08-25T05:27:14.331Z,16.80
2022-08-25T05:29:42.476Z,16.30
2022-08-25T05:32:10.506Z,17.50
2022-08-25T05:34:38.624Z,16.70
2022-08-25T05:37:09.275Z,15.60
2022-08-25T05:39:45.606Z,15.90
2022-08-25T05:42:15.471Z,15.00
2022-08-25T05:44:47.231Z,16.40
2022-08-25T05:47:18.053Z,15.10
2022-08-25T05:49:46.154Z,14.70
2022-08-25T05:52:21.251Z,14.00
2022-08-25T05:54:49.367Z,13.40
2022-08-25T05:57:21.691Z,14.10
2022-08-25T05:59:51.432Z,13.50
2022-08-25T06:02:45.367Z,15.90
2022-08-25T06:05:23.214Z,13.50
2022-08-25T06:08:08.995Z,14.30
2022-08-25T06:10:43.049Z,13.60
2022-08-25T06:13:41.287Z,14.30
2022-08-25T06:16:15.767Z,13.10
2022-08-25T06:21:47.093Z,12.70
2022-08-25T06:24:15.959Z,12.10
2022-08-25T06:26:44.473Z,12.10
2022-08-25T06:29:14.242Z,14.30
2022-08-25T06:31:42.918Z,12.80
2022-08-25T06:34:12.261Z,12.70
2022-08-25T06:36:40.536Z,13.50
2022-08-25T06:39:10.529Z,12.00
2022-08-25T06:41:39.160Z,11.10
2022-08-25T06:44:07.554Z,12.10
2022-08-25T06:46:36.951Z,11.20
2022-08-25T06:49:06.827Z,11.10
2022-08-25T06:51:38.247Z,11.50
2022-08-25T06:54:07.227Z,11.00
2022-08-25T06:56:36.088Z,10.10
2022-08-25T06:59:05.413Z,12.00
2022-08-25T07:01:33.678Z,10.70
2022-08-25T07:04:12.926Z,9.90
2022-08-25T07:06:43.083Z,11.60
2022-08-25T07:09:14.289Z,9.80
2022-08-25T07:11:45.397Z,10.20
2022-08-25T07:14:18.045Z,10.00
2022-08-25T07:16:50.227Z,8.90
2022-08-25T07:19:21.289Z,9.00
2022-08-25T07:21:54.281Z,8.30
2022-08-25T07:24:30.637Z,8.00
2022-08-25T07:27:12.976Z,8.00
2022-08-25T07:29:42.604Z,9.10
2022-08-25T07:32:10.914Z,7.90
2022-08-25T07:34:57.292Z,8.40
2022-08-25T07:37:48.158Z,6.90
2022-08-25T07:45:09.208Z,7.20
2022-08-25T08:02:33.546Z,7.10
2022-08-25T08:05:55.365Z,7.40
2022-08-25T08:08:36.729Z,7.00
2022-08-25T08:12:05.857Z,6.80
2022-08-25T08:14:12.267Z,6.30
2022-08-25T08:16:47.892Z,6.70
2022-08-25T08:19:17.157Z,6.00
2022-08-25T08:21:46.910Z,7.80
2022-08-25T08:24:40.280Z,7.70
2022-08-25T08:27:07.894Z,6.10
2022-08-25T08:29:36.620Z,6.70
2022-08-25T08:32:08.302Z,5.90
2022-08-25T08:34:37.062Z,7.10
2022-08-25T08:37:05.366Z,6.70
2022-08-25T08:39:34.887Z,7.00
2022-08-25T08:43:13.378Z,6.60
2022-08-25T08:45:56.391Z,7.00
2022-08-25T08:49:11.827Z,6.30
2022-08-25T08:51:53.704Z,6.30
2022-08-25T08:54:24.901Z,6.80
2022-08-25T08:57:05.448Z,6.20
2022-08-25T08:59:48.692Z,6.70
2022-08-25T09:02:38.683Z,5.90
2022-08-25T09:05:16.286Z,6.10
2022-08-25T09:07:58.132Z,6.20
2022-08-25T09:10:44.603Z,6.00
2022-08-25T09:14:02.361Z,5.60
2022-08-25T09:16:57.365Z,7.20
2022-08-25T09:19:56.408Z,6.20
2022-08-25T09:22:48.548Z,6.50
2022-08-25T09:25:52.719Z,6.00
2022-08-25T09:28:43.168Z,5.20
2022-08-25T09:31:40.716Z,6.20
2022-08-25T09:39:20.100Z,4.60
2022-08-25T09:41:52.686Z,5.30
2022-08-25T09:44:28.316Z,5.60
2022-08-25T09:47:23.381Z,5.30
2022-08-25T09:50:00.930Z,5.00
2022-08-25T09:52:28.883Z,6.10
2022-08-25T09:55:20.569Z,5.70
2022-08-25T09:58:18.798Z,6.00
2022-08-25T10:01:13.727Z,5.90
2022-08-25T10:04:06.056Z,6.40
2022-08-25T10:09:08.527Z,5.10
2022-08-25T10:11:45.551Z,6.40
2022-08-25T10:14:25.900Z,5.80
2022-08-25T10:17:12.913Z,6.30
2022-08-25T10:19:41.713Z,6.00
2022-08-25T10:22:34.512Z,5.00
2022-08-25T10:25:06.592Z,5.20
2022-08-25T10:27:52.965Z,5.50
2022-08-25T10:30:40.797Z,6.20
2022-08-25T10:33:22.646Z,6.00
2022-08-25T10:36:03.558Z,5.00
2022-08-25T10:38:45.064Z,5.80
2022-08-25T10:41:44.495Z,5.80
2022-08-25T10:44:59.880Z,5.50
2022-08-25T10:47:51.203Z,5.50
2022-08-25T10:50:40.504Z,6.50
2022-08-25T10:53:25.722Z,5.40
2022-08-25T10:56:21.789Z,5.80
2022-08-25T10:59:04.426Z,5.70
2022-08-25T11:02:08.971Z,5.70
2022-08-25T11:05:03.653Z,5.60
2022-08-25T11:07:38.734Z,5.50
2022-08-25T11:10:17.570Z,5.00
2022-08-25T11:12:55.713Z,5.60
2022-08-25T11:15:54.756Z,5.80
2022-08-25T11:18:32.203Z,6.40
2022-08-25T11:21:18.455Z,5.30
2022-08-25T11:24:14.224Z,5.70
2022-08-25T11:29:22.196Z,6.00
2022-08-25T11:31:53.968Z,5.50
2022-08-25T11:34:23.191Z,6.20
2022-08-25T11:36:57.896Z,6.40
2022-08-25T11:39:58.854Z,5.50
2022-08-25T11:42:45.710Z,6.60
2022-08-25T11:46:13.857Z,5.90
2022-08-25T11:49:17.418Z,5.50
2022-08-25T11:51:51.661Z,6.20
2022-08-25T11:54:36.447Z,6.00
2022-08-25T11:57:22.332Z,5.80
2022-08-25T11:59:50.163Z,6.00
2022-08-25T12:02:47.644Z,6.40
2022-08-25T12:05:24.796Z,6.50
2022-08-25T12:08:13.571Z,6.50
2022-08-25T12:11:15.324Z,6.90
2022-08-25T12:13:51.824Z,6.70
2022-08-25T12:16:36.942Z,6.10
2022-08-25T12:19:29.937Z,6.50
2022-08-25T12:22:04.055Z,6.70
2022-08-25T12:24:47.677Z,5.60
2022-08-25T12:27:56.002Z,7.30
2022-08-25T12:30:47.489Z,6.40
2022-08-25T12:33:55.927Z,6.50
2022-08-25T12:36:35.795Z,6.70
2022-08-25T12:39:24.709Z,7.40
2022-08-25T12:42:03.945Z,7.40
2022-08-25T12:44:47.749Z,5.80
2022-08-25T12:47:35.436Z,6.40
2022-08-25T12:50:34.641Z,6.50
2022-08-25T12:53:28.876Z,6.80
2022-08-25T12:56:04.681Z,6.00
2022-08-25T12:59:04.048Z,5.70
2022-08-25T13:02:18.186Z,7.10
2022-08-25T13:05:33.719Z,6.10
2022-08-25T13:08:33.812Z,6.00
2022-08-25T13:11:14.814Z,6.40
2022-08-25T13:14:19.865Z,7.00
2022-08-25T13:16:57.582Z,6.30
2022-08-25T13:19:27.395Z,6.70
2022-08-25T13:22:16.181Z,6.90
2022-08-25T13:27:25.391Z,6.80
2022-08-25T13:29:58.341Z,6.40
2022-08-25T13:32:35.734Z,6.50
2022-08-25T13:35:22.203Z,7.20
2022-08-25T13:37:54.256Z,6.10
2022-08-25T13:40:29.378Z,7.10
2022-08-25T13:43:11.106Z,7.40
2022-08-25T13:45:46.637Z,5.80
2022-08-25T13:48:38.074Z,6.00
2022-08-25T13:51:31.493Z,5.90
2022-08-25T13:54:05.250Z,5.70
2022-08-25T13:56:42.081Z,6.20
2022-08-25T13:59:39.214Z,5.80
2022-08-25T14:02:19.435Z,5.50
2022-08-25T14:04:51.482Z,6.00
2022-08-25T14:07:21.105Z,5.30
2022-08-25T14:10:30.050Z,7.00
2022-08-25T14:13:35.103Z,6.90
2022-08-25T14:17:02.651Z,5.30
2022-08-25T14:19:54.125Z,6.00
2022-08-25T14:22:33.152Z,5.70
2022-08-25T14:29:41.710Z,5.90
2022-08-25T14:32:29.971Z,5.00
2022-08-25T14:35:27.522Z,6.40
2022-08-25T14:38:11.589Z,7.30
2022-08-25T14:40:43.484Z,5.00
2022-08-25T14:44:01.774Z,5.70
2022-08-25T14:46:38.555Z,6.90
2022-08-25T14:49:12.091Z,5.90
2022-08-25T14:51:52.488Z,5.90
2022-08-25T14:54:24.067Z,6.10
2022-08-25T14:56:52.320Z,6.20
2022-08-25T14:59:20.670Z,6.10
2022-08-25T15:01:50.176Z,5.70
2022-08-25T15:04:23.487Z,6.30
2022-08-25T15:06:56.505Z,5.30
2022-08-25T15:09:25.163Z,6.00
2022-08-25T15:12:03.594Z,6.40
2022-08-25T15:14:33.339Z,5.90
2022-08-25T15:17:02.646Z,6.20
2022-08-25T15:19:31.232Z,5.50
2022-08-25T15:25:10.327Z,5.90
2022-08-25T15:27:38.472Z,5.70
2022-08-25T15:30:08.217Z,5.50
2022-08-25T15:32:40.903Z,5.70
2022-08-25T15:35:17.627Z,6.00
2022-08-25T15:37:48.293Z,5.70
2022-08-25T15:40:16.508Z,5.80
2022-08-25T15:42:46.084Z,6.10
2022-08-25T15:45:15.393Z,6.10
2022-08-25T15:47:45.281Z,5.90
2022-08-25T15:50:25.410Z,5.60
2022-08-25T15:52:58.239Z,6.50
2022-08-25T15:57:55.511Z,6.00
2022-08-25T16:00:24.395Z,6.60
2022-08-25T16:02:52.642Z,6.00
2022-08-25T16:05:25.625Z,5.70
2022-08-25T16:07:54.369Z,5.90
2022-08-25T16:10:24.619Z,6.00
2022-08-25T16:12:53.598Z,5.50
2022-08-25T16:15:23.999Z,7.00
2022-08-25T16:17:59.154Z,6.20
2022-08-25T16:20:29.184Z,6.20
2022-08-25T16:22:58.262Z,6.30
2022-08-25T16:25:27.377Z,6.70
2022-08-25T16:27:55.557Z,6.50
2022-08-25T16:30:25.446Z,6.30
2022-08-25T16:32:56.893Z,7.00
2022-08-25T16:35:28.282Z,7.00
2022-08-25T16:37:57.309Z,6.60
2022-08-25T16:40:30.583Z,6.70
2022-08-25T16:42:59.719Z,5.50
2022-08-25T16:45:30.641Z,6.10
2022-08-25T16:47:58.631Z,7.30
2022-08-25T16:50:26.640Z,5.60
2022-08-25T16:53:16.113Z,5.90
2022-08-25T16:55:45.815Z,6.30
2022-08-25T16:58:13.733Z,6.00
2022-08-25T17:00:43.991Z,6.60
2022-08-25T17:03:13.270Z,6.30
2022-08-25T17:05:43.349Z,6.10
2022-08-25T17:08:30.667Z,6.00
2022-08-25T17:11:15.574Z,6.70
2022-08-25T17:13:47.741Z,6.30
2022-08-25T17:16:21.142Z,6.70
2022-08-25T17:18:49.207Z,6.80
2022-08-25T17:21:24.237Z,6.50
2022-08-25T17:23:58.083Z,6.30
2022-08-25T17:26:28.830Z,6.50
2022-08-25T17:28:59.734Z,6.80
2022-08-25T17:31:29.938Z,6.40
2022-08-25T17:33:59.592Z,7.20
2022-08-25T17:36:28.201Z,6.80
2022-08-25T17:38:59.248Z,7.80
2022-08-25T17:41:27.265Z,7.40
2022-08-25T17:43:55.238Z,8.10
2022-08-25T17:46:24.491Z,8.80
2022-08-25T17:48:53.362Z,8.20
2022-08-25T17:51:23.138Z,8.20
2022-08-25T17:53:52.867Z,7.80
2022-08-25T17:56:24.283Z,8.40
2022-08-25T17:58:59.309Z,8.20
2022-08-25T18:01:33.775Z,7.70
2022-08-25T18:04:01.831Z,7.70
2022-08-25T18:06:31.352Z,8.00
2022-08-25T18:09:09.876Z,7.30
2022-08-25T18:11:37.921Z,7.10
2022-08-25T18:14:34.865Z,8.10
2022-08-25T18:17:04.000Z,8.00
2022-08-25T18:19:41.489Z,8.00
2022-08-25T18:22:10.813Z,8.90
2022-08-25T18:24:40.221Z,10.50
2022-08-25T18:27:08.628Z,19.00
2022-08-25T18:29:44.173Z,13.20
2022-08-25T18:32:12.436Z,13.20
2022-08-25T18:34:40.582Z,11.10
2022-08-25T18:37:27.739Z,12.10
2022-08-25T18:40:14.377Z,11.90
2022-08-25T18:42:42.900Z,12.10
2022-08-25T18:45:12.325Z,11.10
2022-08-25T18:47:41.000Z,9.70
2022-08-25T18:50:09.716Z,10.80
2022-08-25T18:52:38.713Z,12.10
2022-08-25T18:55:07.990Z,12.10
2022-08-25T18:57:38.874Z,10.30
2022-08-25T19:00:13.085Z,10.50
2022-08-25T19:02:41.285Z,11.00
2022-08-25T19:05:17.801Z,12.50
2022-08-25T19:07:45.861Z,11.70
2022-08-25T19:10:23.961Z,12.10
2022-08-25T19:12:57.071Z,12.70
2022-08-25T19:15:27.278Z,13.10
2022-08-25T19:17:59.043Z,13.20
2022-08-25T19:20:30.570Z,18.40
2022-08-25T19:22:59.772Z,17.90
2022-08-25T19:25:33.241Z,15.20
2022-08-25T19:28:04.289Z,14.30
2022-08-25T19:30:34.644Z,13.20
2022-08-25T19:33:05.175Z,13.70
2022-08-25T19:35:49.476Z,12.80
2022-08-25T19:38:49.289Z,13.10
2022-08-25T19:41:22.357Z,11.60
2022-08-25T19:43:56.262Z,12.60
2022-08-25T19:46:33.353Z,13.10
2022-08-25T19:49:13.358Z,13.60
2022-08-25T19:51:47.254Z,13.20
2022-08-25T19:54:29.547Z,12.30
2022-08-25T19:56:59.522Z,11.40
2022-08-25T19:59:40.775Z,10.50
2022-08-25T20:02:25.268Z,9.20
2022-08-25T20:05:00.160Z,10.20
2022-08-25T20:07:31.082Z,9.50
2022-08-25T20:10:00.330Z,8.80
2022-08-25T20:12:29.212Z,8.50
2022-08-25T20:14:58.241Z,10.10
2022-08-25T20:17:31.606Z,10.80
2022-08-25T20:20:05.273Z,10.50
2022-08-25T20:22:35.806Z,10.40
2022-08-25T20:25:22.934Z,10.60
2022-08-25T20:27:54.911Z,11.10
2022-08-25T20:30:27.398Z,11.10
2022-08-25T20:32:58.248Z,10.80
2022-08-25T20:35:33.560Z,10.70
2022-08-25T20:38:02.017Z,10.60
2022-08-25T20:40:33.953Z,10.90
2022-08-25T20:43:10.439Z,10.10
2022-08-25T20:45:40.066Z,10.30
2022-08-25T20:48:11.377Z,10.70
2022-08-25T20:50:39.912Z,10.90
2022-08-25T20:53:10.174Z,9.70
2022-08-25T20:55:45.367Z,10.20
2022-08-25T20:58:32.141Z,9.90
2022-08-25T21:01:17.531Z,10.10
2022-08-25T21:03:51.344Z,10.60
2022-08-25T21:06:19.254Z,10.80
2022-08-25T21:09:01.742Z,10.20
2022-08-25T21:11:49.166Z,9.70
2022-08-25T21:14:26.755Z,10.30
2022-08-25T21:16:56.339Z,10.90
2022-08-25T21:19:36.439Z,11.00
2022-08-25T21:22:10.811Z,10.60
2022-08-25T21:24:41.021Z,11.40
2022-08-25T21:27:23.913Z,10.10
2022-08-25T21:29:59.508Z,10.70
2022-08-25T21:32:27.821Z,11.40
2022-08-25T21:34:56.454Z,10.50
2022-08-25T21:37:32.329Z,10.80
2022-08-25T21:40:00.794Z,10.60
2022-08-25T21:42:28.890Z,11.50
2022-08-25T21:48:04.087Z,10.30
2022-08-25T21:50:41.314Z,9.90
2022-08-25T21:53:10.430Z,9.30
2022-08-25T21:55:42.017Z,10.00
2022-08-25T21:58:10.266Z,9.80
2022-08-25T22:00:41.824Z,9.60
2022-08-25T22:03:09.834Z,8.70
2022-08-25T22:05:40.570Z,9.90
2022-08-25T22:08:16.009Z,9.20
2022-08-25T22:10:45.034Z,9.40
2022-08-25T22:13:16.475Z,9.60
2022-08-25T22:15:55.541Z,11.40
2022-08-25T22:18:23.608Z,9.10
2022-08-25T22:20:51.882Z,9.40
2022-08-25T22:23:21.971Z,9.00
2022-08-25T22:25:56.122Z,9.50
2022-08-25T22:28:27.167Z,10.10
2022-08-25T22:31:01.787Z,10.00
2022-08-25T22:33:30.515Z,10.10
2022-08-25T22:35:59.857Z,9.40
2022-08-25T22:38:27.908Z,10.20
2022-08-25T22:41:02.983Z,9.50
2022-08-25T22:43:31.528Z,9.50
2022-08-25T22:46:05.245Z,9.50
2022-08-25T22:48:34.182Z,9.10
2022-08-25T22:51:11.073Z,10.40
2022-08-25T22:53:43.141Z,9.80
2022-08-25T22:56:13.305Z,9.60
2022-08-25T22:58:51.873Z,10.10
2022-08-25T23:01:22.511Z,10.10
2022-08-25T23:03:50.820Z,10.70
2022-08-25T23:06:25.303Z,9.80
2022-08-25T23:08:55.014Z,9.50
2022-08-25T23:11:24.620Z,10.50
2022-08-25T23:13:59.431Z,9.70
2022-08-25T23:16:29.063Z,11.00
2022-08-25T23:18:57.371Z,10.00
2022-08-25T23:21:44.420Z,11.50
2022-08-25T23:24:14.480Z,11.50
2022-08-25T23:27:00.792Z,11.10
2022-08-25T23:29:30.323Z,10.90
2022-08-25T23:32:00.686Z,11.20
2022-08-25T23:34:29.130Z,10.70
2022-08-25T23:36:57.165Z,10.30
2022-08-25T23:39:45.835Z,10.80
2022-08-25T23:42:14.147Z,10.50
2022-08-25T23:44:43.531Z,9.70
2022-08-25T23:47:12.298Z,11.00
2022-08-25T23:49:40.471Z,10.40
2022-08-25T23:52:08.448Z,11.20
2022-08-25T23:54:36.494Z,12.40
2022-08-25T23:57:06.891Z,11.90
2022-08-25T23:59:35.249Z,13.60
